createdAt,value
2023-01-27T00:01:06.105Z,99432.46
2023-01-27T00:03:34.328Z,99431.12
2023-01-27T00:06:02.227Z,99429.79
2023-01-27T00:08:30.173Z,99427.02
2023-01-27T00:11:20.320Z,99426.48
2023-01-27T00:13:48.411Z,99425.31
2023-01-27T00:16:16.443Z,99427.27
2023-01-27T00:18:44.468Z,99423.52
2023-01-27T00:21:31.110Z,99422.67
2023-01-27T00:24:17.431Z,99423.02
2023-01-27T00:26:45.317Z,99418.15
2023-01-27T00:29:13.552Z,99419.04
2023-01-27T00:31:59.939Z,99421.99
2023-01-27T00:34:27.852Z,99423.92
2023-01-27T00:36:55.738Z,99429.81
2023-01-27T00:39:23.608Z,99430.33
2023-01-27T00:41:51.497Z,99433.62
2023-01-27T00:44:19.343Z,99436.23
2023-01-27T00:46:47.269Z,99436.77
2023-01-27T00:49:15.544Z,99442.48
2023-01-27T00:51:43.461Z,99446.13
2023-01-27T00:54:11.503Z,99451.16
2023-01-27T00:56:39.343Z,99449.23
2023-01-27T00:59:07.291Z,99453.38
2023-01-27T01:01:35.713Z,99454.92
2023-01-27T01:04:04.174Z,99458.16
2023-01-27T01:06:32.283Z,99456.77
2023-01-27T01:09:00.229Z,99451.39
2023-01-27T01:11:28.247Z,99451.07
2023-01-27T01:13:56.815Z,99449.01
2023-01-27T01:16:26.219Z,99448.32
2023-01-27T01:18:54.347Z,99452.65
2023-01-27T01:21:22.531Z,99454.05
2023-01-27T01:23:50.535Z,99451.28
2023-01-27T01:26:18.754Z,99448.86
2023-01-27T01:28:47.666Z,99454.53
2023-01-27T01:31:19.000Z,99454.03
2023-01-27T01:33:48.305Z,99453.19
2023-01-27T01:36:19.540Z,99454.23
2023-01-27T01:38:48.376Z,99453.91
2023-01-27T01:41:19.318Z,99452.36
2023-01-27T01:43:49.456Z,99451.88
2023-01-27T01:46:19.107Z,99448.04
2023-01-27T01:48:52.120Z,99446.26
2023-01-27T01:51:40.444Z,99447.24
2023-01-27T01:54:13.331Z,99445.39
2023-01-27T01:56:47.791Z,99447.99
2023-01-27T01:59:32.411Z,99444.70
2023-01-27T02:02:05.297Z,99444.01
2023-01-27T02:04:42.582Z,99443.98
2023-01-27T02:07:21.692Z,99447.61
2023-01-27T02:09:54.706Z,99444.87
2023-01-27T02:12:23.039Z,99443.67
2023-01-27T02:14:50.951Z,99445.79
2023-01-27T02:17:18.928Z,99444.94
2023-01-27T02:20:01.912Z,99440.80
2023-01-27T02:22:48.282Z,99437.52
2023-01-27T02:25:23.654Z,99434.55
2023-01-27T02:27:51.540Z,99433.79
2023-01-27T02:30:19.659Z,99434.95
2023-01-27T02:32:47.582Z,99437.75
2023-01-27T02:35:30.386Z,99443.30
2023-01-27T02:37:59.327Z,99440.38
2023-01-27T02:40:29.751Z,99438.29
2023-01-27T02:42:58.151Z,99440.33
2023-01-27T02:45:26.561Z,99444.67
2023-01-27T02:47:54.794Z,99448.03
2023-01-27T02:50:22.793Z,99450.48
2023-01-27T02:52:50.628Z,99447.05
2023-01-27T02:55:18.498Z,99445.31
2023-01-27T02:57:46.426Z,99444.65
2023-01-27T03:00:26.863Z,99445.16
2023-01-27T03:02:55.208Z,99444.79
2023-01-27T03:05:23.134Z,99443.25
2023-01-27T03:07:50.957Z,99439.47
2023-01-27T03:10:18.947Z,99442.08
2023-01-27T03:12:46.872Z,99443.64
2023-01-27T03:15:33.294Z,99443.66
2023-01-27T03:18:16.255Z,99447.83
2023-01-27T03:20:46.770Z,99447.66
2023-01-27T03:23:17.363Z,99446.98
2023-01-27T03:25:49.044Z,99447.14
2023-01-27T03:28:17.218Z,99449.36
2023-01-27T03:31:08.508Z,99449.52
2023-01-27T03:33:49.596Z,99448.52
2023-01-27T03:36:45.778Z,99440.92
2023-01-27T03:39:32.638Z,99443.30
2023-01-27T03:42:19.364Z,99446.71
2023-01-27T03:45:06.136Z,99448.66
2023-01-27T03:47:34.001Z,99454.04
2023-01-27T03:50:01.900Z,99454.73
2023-01-27T03:52:29.710Z,99449.73
2023-01-27T03:54:57.569Z,99454.61
2023-01-27T03:57:25.397Z,99455.84
2023-01-27T03:59:53.213Z,99458.64
2023-01-27T04:02:40.117Z,99457.79
2023-01-27T04:05:27.021Z,99456.41
2023-01-27T04:07:54.895Z,99457.08
2023-01-27T04:10:22.796Z,99451.38
2023-01-27T04:12:50.663Z,99450.03
2023-01-27T04:15:18.535Z,99451.92
2023-01-27T04:17:47.256Z,99451.58
2023-01-27T04:20:15.129Z,99448.14
2023-01-27T04:22:43.020Z,99449.02
2023-01-27T04:25:13.196Z,99447.11
2023-01-27T04:27:42.022Z,99451.41
2023-01-27T04:30:10.699Z,99451.24
2023-01-27T04:32:38.678Z,99451.92
2023-01-27T04:35:06.824Z,99453.65
2023-01-27T04:37:34.679Z,99454.69
2023-01-27T04:40:02.528Z,99454.20
2023-01-27T04:42:30.590Z,99453.33
2023-01-27T04:44:58.618Z,99456.41
2023-01-27T04:47:26.585Z,99460.20
2023-01-27T04:49:54.447Z,99463.48
2023-01-27T04:52:22.312Z,99467.63
2023-01-27T04:54:50.210Z,99469.18
2023-01-27T04:57:18.145Z,99469.00
2023-01-27T04:59:46.034Z,99470.73
2023-01-27T05:02:14.439Z,99467.95
2023-01-27T05:04:42.305Z,99471.09
2023-01-27T05:07:10.283Z,99476.65
2023-01-27T05:09:38.150Z,99475.09
2023-01-27T05:12:06.360Z,99471.44
2023-01-27T05:14:34.355Z,99474.91
2023-01-27T05:17:02.208Z,99483.05
2023-01-27T05:19:30.076Z,99484.11
2023-01-27T05:21:58.056Z,99481.01
2023-01-27T05:24:26.066Z,99480.98
2023-01-27T05:26:54.251Z,99478.39
2023-01-27T05:29:22.225Z,99480.62
2023-01-27T05:31:50.053Z,99484.60
2023-01-27T05:34:18.177Z,99486.67
2023-01-27T05:36:46.014Z,99486.99
2023-01-27T05:39:14.105Z,99490.44
2023-01-27T05:41:42.164Z,99490.61
2023-01-27T05:44:12.368Z,99488.01
2023-01-27T05:46:42.038Z,99489.54
2023-01-27T05:49:10.107Z,99492.48
2023-01-27T05:51:39.980Z,99497.50
2023-01-27T05:54:09.056Z,99502.35
2023-01-27T05:56:36.976Z,99505.79
2023-01-27T05:59:05.016Z,99509.60
2023-01-27T06:01:34.913Z,99509.77
2023-01-27T06:04:03.639Z,99509.10
2023-01-27T06:06:32.951Z,99505.11
2023-01-27T06:09:00.903Z,99504.25
2023-01-27T06:11:28.851Z,99505.82
2023-01-27T06:13:57.200Z,99507.88
2023-01-27T06:16:25.737Z,99514.09
2023-01-27T06:18:53.713Z,99520.31
2023-01-27T06:21:21.628Z,99521.02
2023-01-27T06:23:49.978Z,99518.42
2023-01-27T06:26:19.717Z,99521.54
2023-01-27T06:28:47.964Z,99525.02
2023-01-27T06:31:19.591Z,99527.62
2023-01-27T06:33:47.939Z,99530.20
2023-01-27T06:36:18.559Z,99530.01
2023-01-27T06:38:46.978Z,99529.83
2023-01-27T06:41:15.354Z,99534.50
2023-01-27T06:43:43.308Z,99534.85
2023-01-27T06:46:11.475Z,99538.83
2023-01-27T06:48:39.624Z,99536.38
2023-01-27T06:51:07.892Z,99537.23
2023-01-27T06:53:37.521Z,99538.10
2023-01-27T06:56:06.215Z,99540.86
2023-01-27T06:58:34.325Z,99537.75
2023-01-27T07:01:06.571Z,99535.45
2023-01-27T07:03:37.505Z,99536.66
2023-01-27T07:06:06.003Z,99541.18
2023-01-27T07:08:34.150Z,99537.05
2023-01-27T07:11:04.491Z,99538.26
2023-01-27T07:13:32.404Z,99540.34
2023-01-27T07:16:00.526Z,99546.73
2023-01-27T07:18:28.787Z,99551.42
2023-01-27T07:20:56.700Z,99550.80
2023-01-27T07:23:24.583Z,99543.79
2023-01-27T07:25:52.428Z,99542.63
2023-01-27T07:28:20.459Z,99542.40
2023-01-27T07:30:48.414Z,99542.43
2023-01-27T07:33:16.499Z,99542.48
2023-01-27T07:35:44.421Z,99543.20
2023-01-27T07:38:12.292Z,99538.54
2023-01-27T07:40:40.748Z,99545.29
2023-01-27T07:43:10.862Z,99551.05
2023-01-27T07:45:41.441Z,99552.80
2023-01-27T07:48:09.472Z,99550.94
2023-01-27T07:50:41.827Z,99549.76
2023-01-27T07:53:10.923Z,99548.73
2023-01-27T07:55:38.823Z,99546.34
2023-01-27T07:58:06.851Z,99550.65
2023-01-27T08:00:35.603Z,99548.23
2023-01-27T08:03:05.745Z,99554.45
2023-01-27T08:05:35.215Z,99556.73
2023-01-27T08:08:06.415Z,99553.45
2023-01-27T08:10:34.693Z,99550.17
2023-01-27T08:13:02.663Z,99550.48
2023-01-27T08:15:30.619Z,99547.51
2023-01-27T08:17:59.443Z,99553.05
2023-01-27T08:20:28.063Z,99557.73
2023-01-27T08:22:56.655Z,99556.86
2023-01-27T08:25:25.160Z,99554.63
2023-01-27T08:27:54.946Z,99553.61
2023-01-27T08:30:23.776Z,99553.27
2023-01-27T08:32:51.827Z,99556.55
2023-01-27T08:35:19.751Z,99560.69
2023-01-27T08:37:48.949Z,99559.30
2023-01-27T08:40:17.846Z,99557.77
2023-01-27T08:42:45.815Z,99559.67
2023-01-27T08:45:14.023Z,99562.77
2023-01-27T08:47:42.023Z,99563.98
2023-01-27T08:50:10.973Z,99565.89
2023-01-27T08:52:38.994Z,99567.45
2023-01-27T08:55:07.103Z,99571.59
2023-01-27T08:57:36.939Z,99573.31
2023-01-27T09:00:07.239Z,99579.16
2023-01-27T09:02:35.663Z,99581.40
2023-01-27T09:05:03.773Z,99580.54
2023-01-27T09:07:31.712Z,99580.52
2023-01-27T09:10:20.073Z,99584.14
2023-01-27T09:12:47.555Z,99591.57
2023-01-27T09:15:15.914Z,99591.91
2023-01-27T09:17:43.846Z,99596.06
2023-01-27T09:20:12.469Z,99596.92
2023-01-27T09:22:41.306Z,99598.83
2023-01-27T09:25:14.175Z,99599.01
2023-01-27T09:27:42.480Z,99603.50
2023-01-27T09:30:13.069Z,99604.20
2023-01-27T09:32:42.253Z,99607.48
2023-01-27T09:35:10.704Z,99605.91
2023-01-27T09:37:50.413Z,99610.04
2023-01-27T09:40:46.973Z,99612.98
2023-01-27T09:43:39.178Z,99616.60
2023-01-27T09:46:30.838Z,99614.90
2023-01-27T09:49:20.195Z,99616.13
2023-01-27T09:52:10.147Z,99617.15
2023-01-27T09:55:04.181Z,99615.56
2023-01-27T09:57:54.020Z,99619.54
2023-01-27T10:00:41.771Z,99617.65
2023-01-27T10:03:23.515Z,99621.98
2023-01-27T10:05:57.413Z,99623.02
2023-01-27T10:08:59.722Z,99619.23
2023-01-27T10:11:50.364Z,99612.48
2023-01-27T10:14:42.565Z,99606.09
2023-01-27T10:17:31.314Z,99606.77
2023-01-27T10:20:12.493Z,99607.28
2023-01-27T10:23:07.784Z,99605.90
2023-01-27T10:25:48.792Z,99608.66
2023-01-27T10:28:22.333Z,99608.47
2023-01-27T10:30:50.148Z,99605.70
2023-01-27T10:33:22.424Z,99607.42
2023-01-27T10:36:14.605Z,99610.70
2023-01-27T10:38:53.839Z,99608.23
2023-01-27T10:41:34.042Z,99608.21
2023-01-27T10:44:39.650Z,99604.73
2023-01-27T10:47:26.477Z,99605.77
2023-01-27T10:50:05.320Z,99604.39
2023-01-27T10:52:42.680Z,99595.73
2023-01-27T10:55:23.099Z,99590.02
2023-01-27T10:57:55.784Z,99591.19
2023-01-27T11:03:46.277Z,99592.89
2023-01-27T11:06:16.088Z,99592.25
2023-01-27T11:08:52.190Z,99593.65
2023-01-27T11:11:43.087Z,99596.60
2023-01-27T11:14:14.558Z,99600.09
2023-01-27T11:16:47.964Z,99601.16
2023-01-27T11:19:28.676Z,99599.10
2023-01-27T11:22:07.244Z,99596.52
2023-01-27T11:24:47.152Z,99593.77
2023-01-27T11:27:18.095Z,99589.05
2023-01-27T11:29:54.043Z,99587.15
2023-01-27T11:32:38.841Z,99587.34
2023-01-27T11:35:10.918Z,99587.73
2023-01-27T11:37:41.954Z,99592.59
2023-01-27T11:40:26.886Z,99591.23
2023-01-27T11:42:58.245Z,99583.77
2023-01-27T11:45:28.035Z,99582.57
2023-01-27T11:48:00.033Z,99585.86
2023-01-27T11:50:32.006Z,99581.38
2023-01-27T11:53:12.378Z,99585.19
2023-01-27T11:55:48.866Z,99585.73
2023-01-27T11:58:26.487Z,99586.27
2023-01-27T12:01:01.903Z,99583.35
2023-01-27T12:03:49.886Z,99581.44
2023-01-27T12:06:30.942Z,99579.00
2023-01-27T12:08:58.779Z,99577.59
2023-01-27T12:11:29.392Z,99577.05
2023-01-27T12:13:59.825Z,99574.29
2023-01-27T12:16:33.959Z,99578.79
2023-01-27T12:19:25.965Z,99577.59
2023-01-27T12:22:00.267Z,99573.29
2023-01-27T12:24:32.459Z,99577.81
2023-01-27T12:27:02.940Z,99574.53
2023-01-27T12:29:51.829Z,99572.44
2023-01-27T12:32:42.379Z,99568.81
2023-01-27T12:35:37.010Z,99568.27
2023-01-27T12:38:13.241Z,99572.38
2023-01-27T12:40:44.583Z,99571.15
2023-01-27T12:43:15.813Z,99573.41
2023-01-27T12:45:44.869Z,99570.30
2023-01-27T12:48:13.023Z,99570.11
2023-01-27T12:50:52.912Z,99570.63
2023-01-27T12:53:27.667Z,99569.23
2023-01-27T12:56:04.771Z,99571.11
2023-01-27T12:58:40.184Z,99568.48
2023-01-27T13:01:20.455Z,99569.84
2023-01-27T13:03:55.465Z,99576.75
2023-01-27T13:06:32.533Z,99577.11
2023-01-27T13:09:01.710Z,99574.52
2023-01-27T13:11:37.410Z,99575.20
2023-01-27T13:14:16.148Z,99582.80
2023-01-27T13:16:53.109Z,99590.75
2023-01-27T13:19:26.371Z,99591.95
2023-01-27T13:21:55.355Z,99594.73
2023-01-27T13:24:36.819Z,99598.18
2023-01-27T13:27:09.955Z,99599.52
2023-01-27T13:29:41.897Z,99602.95
2023-01-27T13:32:20.623Z,99604.88
2023-01-27T13:35:06.803Z,99608.86
2023-01-27T13:37:40.925Z,99608.35
2023-01-27T13:40:18.961Z,99613.55
2023-01-27T13:42:55.195Z,99609.42
2023-01-27T13:45:30.178Z,99610.48
2023-01-27T13:48:22.488Z,99616.16
2023-01-27T13:51:03.784Z,99620.14
2023-01-27T13:53:31.809Z,99625.16
2023-01-27T13:56:11.845Z,99630.54
2023-01-27T13:58:39.684Z,99630.38
2023-01-27T14:01:18.803Z,99629.14
2023-01-27T14:03:49.681Z,99633.27
2023-01-27T14:06:24.986Z,99633.78
2023-01-27T14:09:12.327Z,99635.70
2023-01-27T14:12:15.668Z,99634.85
2023-01-27T14:15:00.197Z,99631.54
2023-01-27T14:17:30.782Z,99633.57
2023-01-27T14:20:42.665Z,99634.23
2023-01-27T14:23:29.032Z,99636.50
2023-01-27T14:26:41.045Z,99636.84
2023-01-27T14:29:46.203Z,99637.80
2023-01-27T14:32:17.076Z,99637.39
2023-01-27T14:35:14.551Z,99638.05
2023-01-27T14:37:58.867Z,99641.20
2023-01-27T14:40:32.420Z,99639.52
2023-01-27T14:43:12.282Z,99642.67
2023-01-27T14:45:47.249Z,99645.96
2023-01-27T14:48:21.266Z,99646.51
2023-01-27T14:51:21.961Z,99647.71
2023-01-27T14:54:17.218Z,99646.00
2023-01-27T14:57:14.731Z,99646.17
2023-01-27T15:00:02.678Z,99645.80
2023-01-27T15:02:55.048Z,99644.77
2023-01-27T15:05:58.089Z,99644.38
2023-01-27T15:09:04.482Z,99642.40
2023-01-27T15:11:50.941Z,99647.22
2023-01-27T15:14:37.573Z,99644.94
2023-01-27T15:17:56.892Z,99646.51
2023-01-27T15:21:09.914Z,99648.45
2023-01-27T15:23:53.006Z,99649.88
2023-01-27T15:26:25.349Z,99648.30
2023-01-27T15:28:54.402Z,99652.91
2023-01-27T15:31:26.402Z,99653.04
2023-01-27T15:34:04.959Z,99650.92
2023-01-27T15:36:36.017Z,99658.56
2023-01-27T15:39:03.912Z,99659.96
2023-01-27T15:41:32.714Z,99661.18
2023-01-27T15:44:17.487Z,99665.88
2023-01-27T15:46:50.824Z,99668.52
2023-01-27T15:49:29.085Z,99671.67
2023-01-27T15:52:10.732Z,99672.20
2023-01-27T15:54:42.069Z,99671.50
2023-01-27T15:57:37.173Z,99677.20
2023-01-27T16:00:27.171Z,99679.95
2023-01-27T16:02:58.934Z,99685.14
2023-01-27T16:05:41.530Z,99684.27
2023-01-27T16:08:16.068Z,99684.25
2023-01-27T16:10:45.239Z,99686.15
2023-01-27T16:13:21.267Z,99683.20
2023-01-27T16:16:09.856Z,99687.98
2023-01-27T16:18:49.616Z,99685.50
2023-01-27T16:21:55.525Z,99686.87
2023-01-27T16:24:31.317Z,99690.80
2023-01-27T16:27:05.305Z,99686.99
2023-01-27T16:29:49.952Z,99685.99
2023-01-27T16:32:25.613Z,99689.46
2023-01-27T16:34:59.322Z,99689.30
2023-01-27T16:37:30.350Z,99697.30
2023-01-27T16:40:05.801Z,99695.91
2023-01-27T16:42:40.873Z,99694.35
2023-01-27T16:45:22.150Z,99696.73
2023-01-27T16:48:06.777Z,99698.58
2023-01-27T16:50:40.126Z,99697.70
2023-01-27T16:53:20.016Z,99705.50
2023-01-27T16:56:06.837Z,99708.30
2023-01-27T16:58:46.167Z,99703.34
2023-01-27T17:01:22.588Z,99704.40
2023-01-27T17:03:55.184Z,99705.73
2023-01-27T17:06:25.734Z,99708.11
2023-01-27T17:08:53.702Z,99706.52
2023-01-27T17:11:31.763Z,99710.14
2023-01-27T17:14:01.491Z,99707.85
2023-01-27T17:16:39.973Z,99705.02
2023-01-27T17:19:37.605Z,99704.42
2023-01-27T17:22:18.983Z,99700.73
2023-01-27T17:24:52.984Z,99702.41
2023-01-27T17:27:28.103Z,99704.58
2023-01-27T17:30:02.740Z,99706.60
2023-01-27T17:32:37.668Z,99706.41
2023-01-27T17:35:21.345Z,99709.02
2023-01-27T17:37:49.719Z,99710.25
2023-01-27T17:40:22.704Z,99710.76
2023-01-27T17:42:50.591Z,99708.96
2023-01-27T17:45:28.609Z,99715.15
2023-01-27T17:48:00.731Z,99718.69
2023-01-27T17:50:37.792Z,99714.45
2023-01-27T17:53:11.480Z,99720.48
2023-01-27T17:55:39.701Z,99721.33
2023-01-27T17:58:17.001Z,99727.39
2023-01-27T18:00:46.711Z,99728.80
2023-01-27T18:03:25.916Z,99728.11
2023-01-27T18:05:54.565Z,99739.23
2023-01-27T18:08:23.630Z,99732.98
2023-01-27T18:10:51.967Z,99736.08
2023-01-27T18:13:19.855Z,99740.41
2023-01-27T18:15:51.922Z,99739.38
2023-01-27T18:18:24.107Z,99743.48
2023-01-27T18:21:01.148Z,99741.46
2023-01-27T18:23:33.375Z,99741.02
2023-01-27T18:26:27.784Z,99747.72
2023-01-27T18:29:05.216Z,99751.36
2023-01-27T18:31:44.157Z,99754.38
2023-01-27T18:34:12.065Z,99755.27
2023-01-27T18:37:11.362Z,99753.92
2023-01-27T18:39:41.205Z,99760.58
2023-01-27T18:42:20.451Z,99761.84
2023-01-27T18:44:56.056Z,99761.73
2023-01-27T18:47:34.667Z,99763.19
2023-01-27T18:50:14.433Z,99763.33
2023-01-27T18:52:42.916Z,99762.61
2023-01-27T18:55:20.286Z,99762.11
2023-01-27T18:57:53.354Z,99764.58
2023-01-27T19:00:26.999Z,99762.52
2023-01-27T19:02:59.251Z,99761.77
2023-01-27T19:05:30.064Z,99761.41
2023-01-27T19:07:58.583Z,99764.38
2023-01-27T19:10:29.736Z,99763.45
2023-01-27T19:12:59.885Z,99760.13
2023-01-27T19:15:33.445Z,99758.99
2023-01-27T19:18:02.052Z,99765.28
2023-01-27T19:20:31.200Z,99766.76
2023-01-27T19:22:59.170Z,99769.05
2023-01-27T19:25:30.454Z,99770.42
2023-01-27T19:28:04.868Z,99769.25
2023-01-27T19:30:37.867Z,99773.81
2023-01-27T19:33:24.414Z,99777.14
2023-01-27T19:35:58.779Z,99779.42
2023-01-27T19:38:28.826Z,99781.02
2023-01-27T19:40:56.691Z,99784.55
2023-01-27T19:43:24.735Z,99782.00
2023-01-27T19:45:52.787Z,99781.15
2023-01-27T19:48:23.491Z,99788.45
2023-01-27T19:50:52.180Z,99789.87
2023-01-27T19:53:20.701Z,99785.73
2023-01-27T19:55:49.207Z,99793.00
2023-01-27T19:58:26.853Z,99793.04
2023-01-27T20:00:56.008Z,99797.41
2023-01-27T20:03:24.533Z,99796.36
2023-01-27T20:05:52.524Z,99794.79
2023-01-27T20:08:21.114Z,99799.13
2023-01-27T20:10:48.998Z,99804.55
2023-01-27T20:13:19.026Z,99805.25
2023-01-27T20:15:47.752Z,99809.05
2023-01-27T20:18:17.995Z,99809.59
2023-01-27T20:20:46.690Z,99811.00
2023-01-27T20:23:15.430Z,99814.65
2023-01-27T20:25:43.295Z,99822.63
2023-01-27T20:28:12.372Z,99825.78
2023-01-27T20:30:41.541Z,99824.77
2023-01-27T20:33:10.350Z,99826.15
2023-01-27T20:35:38.190Z,99826.53
2023-01-27T20:38:08.657Z,99826.35
2023-01-27T20:40:36.546Z,99828.23
2023-01-27T20:43:04.461Z,99826.66
2023-01-27T20:45:32.593Z,99827.17
2023-01-27T20:48:00.439Z,99829.07
2023-01-27T20:50:28.328Z,99828.54
2023-01-27T20:52:56.180Z,99827.84
2023-01-27T20:55:24.055Z,99827.98
2023-01-27T20:57:51.936Z,99826.57
2023-01-27T21:00:21.749Z,99823.25
2023-01-27T21:02:49.625Z,99823.40
2023-01-27T21:05:17.811Z,99828.09
2023-01-27T21:07:45.822Z,99830.52
2023-01-27T21:10:13.705Z,99831.08
2023-01-27T21:12:41.503Z,99830.41
2023-01-27T21:15:10.183Z,99831.63
2023-01-27T21:17:38.349Z,99833.52
2023-01-27T21:20:06.804Z,99826.59
2023-01-27T21:22:34.741Z,99829.33
2023-01-27T21:25:02.604Z,99830.84
2023-01-27T21:27:30.439Z,99833.76
2023-01-27T21:29:58.271Z,99835.83
2023-01-27T21:32:26.102Z,99835.81
2023-01-27T21:34:53.939Z,99836.66
2023-01-27T21:37:22.055Z,99833.36
2023-01-27T21:39:49.904Z,99834.41
2023-01-27T21:42:17.756Z,99833.71
2023-01-27T21:45:04.014Z,99833.89
2023-01-27T21:47:31.891Z,99834.95
2023-01-27T21:50:02.905Z,99840.49
2023-01-27T21:52:39.189Z,99837.55
2023-01-27T21:55:14.236Z,99835.82
2023-01-27T21:57:43.298Z,99837.92
2023-01-27T22:00:12.832Z,99840.75
2023-01-27T22:02:41.261Z,99838.51
2023-01-27T22:05:12.841Z,99834.52
2023-01-27T22:07:41.682Z,99834.36
2023-01-27T22:10:16.546Z,99835.75
2023-01-27T22:12:45.100Z,99834.54
2023-01-27T22:15:15.452Z,99831.89
2023-01-27T22:17:44.222Z,99821.98
2023-01-27T22:20:16.219Z,99819.20
2023-01-27T22:22:45.034Z,99814.33
2023-01-27T22:25:15.167Z,99812.95
2023-01-27T22:27:43.865Z,99813.10
2023-01-27T22:30:17.588Z,99815.87
2023-01-27T22:32:46.973Z,99813.95
2023-01-27T22:35:17.082Z,99810.31
2023-01-27T22:37:46.042Z,99813.23
2023-01-27T22:40:14.169Z,99812.90
2023-01-27T22:42:42.061Z,99810.67
2023-01-27T22:45:10.851Z,99811.55
2023-01-27T22:47:38.805Z,99812.11
2023-01-27T22:50:07.555Z,99812.48
2023-01-27T22:52:36.792Z,99813.84
2023-01-27T22:55:06.179Z,99810.70
2023-01-27T22:57:34.449Z,99805.46
2023-01-27T23:00:02.567Z,99806.48
2023-01-27T23:02:30.711Z,99806.11
2023-01-27T23:04:59.335Z,99809.27
2023-01-27T23:07:27.307Z,99806.69
2023-01-27T23:09:55.206Z,99804.66
2023-01-27T23:12:23.034Z,99806.56
2023-01-27T23:14:50.954Z,99808.43
2023-01-27T23:17:18.752Z,99808.10
2023-01-27T23:19:46.553Z,99807.58
2023-01-27T23:22:14.354Z,99803.21
2023-01-27T23:24:42.131Z,99805.66
2023-01-27T23:27:10.171Z,99802.96
2023-01-27T23:29:37.995Z,99803.00
2023-01-27T23:32:06.153Z,99803.91
2023-01-27T23:34:33.943Z,99802.00
2023-01-27T23:37:01.779Z,99804.05
2023-01-27T23:39:29.595Z,99804.54
2023-01-27T23:41:57.383Z,99798.10
2023-01-27T23:44:25.211Z,99799.85
2023-01-27T23:46:53.019Z,99799.70
2023-01-27T23:49:20.902Z,99799.73
2023-01-27T23:51:48.769Z,99797.12
2023-01-27T23:54:16.642Z,99801.48
2023-01-27T23:56:44.897Z,99804.46
2023-01-27T23:59:13.310Z,99806.56
